Time;durP1;ratioP1;P1;durP2;ratioP2;P2;SDS_P1;SDS_P2;PMS_P1;PMS_P2;Temp;Humidity;BMP_temperature;BMP_pressure;BME280_temperature;BME280_humidity;BME280_pressure;Samples;Min_cycle;Max_cycle;Signal;HPM_P1;HPM_P2
2023/03/24 00:04:04;;;;;;;10.83;6.73;;;;;;;11.15;100.00;99861.59;4999370;57;1140781;-82
2023/03/24 00:09:10;;;;;;;18.83;7.57;;;;;;;11.09;100.00;99862.98;4974762;57;1140858;-79
2023/03/24 00:14:17;;;;;;;15.60;7.93;;;;;;;11.04;100.00;99859.06;4896259;58;1140895;-80
2023/03/24 00:19:23;;;;;;;17.17;7.83;;;;;;;10.96;100.00;99867.70;4906598;58;1141274;-80
2023/03/24 00:24:29;;;;;;;38.77;13.67;;;;;;;10.91;100.00;99856.20;4962111;57;1140857;-81
2023/03/24 00:29:35;;;;;;;32.60;12.23;;;;;;;10.89;100.00;99858.14;5052418;57;1143034;-79
2023/03/24 00:34:42;;;;;;;17.97;9.03;;;;;;;10.86;100.00;99855.77;5032629;57;1142821;-81
2023/03/24 00:39:48;;;;;;;12.93;7.60;;;;;;;10.77;100.00;99848.66;4976557;57;1140970;-83
2023/03/24 00:44:54;;;;;;;17.40;9.20;;;;;;;10.63;100.00;99846.41;5033122;57;1141226;-80
2023/03/24 00:50:00;;;;;;;16.12;9.58;;;;;;;10.48;100.00;99827.93;5039860;57;1141087;-77
2023/03/24 00:55:07;;;;;;;19.13;8.70;;;;;;;10.27;100.00;99816.58;4984090;57;1140881;-79
2023/03/24 01:00:15;;;;;;;32.83;16.97;;;;;;;10.08;100.00;99806.77;4984126;57;1140742;-80
2023/03/24 01:05:24;;;;;;;22.63;9.80;;;;;;;10.08;100.00;99806.77;5050577;57;1142938;-81
2023/03/24 01:10:33;;;;;;;12.98;7.12;;;;;;;10.08;100.00;99813.38;4875369;57;1140895;-78
2023/03/24 01:15:39;;;;;;;8.15;5.22;;;;;;;10.10;100.00;99810.09;4894169;58;1140843;-80
2023/03/24 01:20:53;;;;;;;9.40;5.33;;;;;;;10.09;100.00;99807.09;4909308;58;1138774;-77
2023/03/24 01:25:55;;;;;;;14.15;4.70;;;;;;;10.03;100.00;99802.36;4945375;58;1138918;-79
2023/03/24 01:31:01;;;;;;;7.03;4.27;;;;;;;9.98;100.00;99795.31;5038313;57;1141081;-78
2023/03/24 01:36:08;;;;;;;7.97;4.60;;;;;;;9.98;100.00;99784.26;5058501;56;1136724;-75
2023/03/24 01:41:14;;;;;;;7.13;4.40;;;;;;;10.02;100.00;99792.28;4955712;58;1136787;-78
2023/03/24 01:46:22;;;;;;;7.63;4.30;;;;;;;10.02;100.00;99788.31;5010891;57;1138651;-79
2023/03/24 01:51:36;;;;;;;9.88;4.05;;;;;;;10.03;100.00;99775.95;5114191;56;1138796;-78
2023/03/24 01:56:49;;;;;;;10.40;6.60;;;;;;;10.04;100.00;99761.28;5106999;56;1138721;-77
2023/03/24 02:02:01;;;;;;;9.48;5.45;;;;;;;10.11;100.00;99747.88;5107139;56;1140737;-76
2023/03/24 02:07:30;;;;;;;9.00;4.77;;;;;;;10.19;100.00;99754.69;5105763;56;1138760;-78
2023/03/24 02:12:36;;;;;;;7.33;4.17;;;;;;;10.23;100.00;99753.94;5126885;56;1138740;-77
2023/03/24 02:18:03;;;;;;;7.83;4.27;;;;;;;10.26;100.00;99749.67;5046363;56;1138705;-73
2023/03/24 02:23:32;;;;;;;6.90;4.23;;;;;;;10.31;100.00;99740.03;5107060;56;1138958;-74
2023/03/24 02:29:05;;;;;;;7.07;4.13;;;;;;;10.30;100.00;99735.23;5106985;56;1138959;-77
2023/03/24 02:34:30;;;;;;;6.90;4.13;;;;;;;10.29;100.00;99727.43;5103135;56;1138811;-79
2023/03/24 02:39:56;;;;;;;7.07;4.00;;;;;;;10.25;100.00;99739.23;4978699;57;1138833;-76
2023/03/24 02:45:21;;;;;;;7.33;3.72;;;;;;;10.19;100.00;99736.19;4959557;58;1138805;-79
2023/03/24 02:50:34;;;;;;;8.30;4.13;;;;;;;10.14;100.00;99725.63;4987364;57;1138991;-76
2023/03/24 02:55:44;;;;;;;6.92;4.83;;;;;;;10.14;100.00;99709.30;4973885;57;1138963;-76
2023/03/24 03:01:09;;;;;;;6.85;3.80;;;;;;;10.14;100.00;99700.05;4818640;58;1138760;-75
2023/03/24 03:06:44;;;;;;;5.37;4.40;;;;;;;10.20;100.00;99701.35;4940488;58;1138753;-76
2023/03/24 03:11:49;;;;;;;12.85;5.00;;;;;;;10.31;100.00;99706.98;4980137;58;1138803;-75
2023/03/24 03:17:03;;;;;;;8.75;5.10;;;;;;;10.40;100.00;99714.09;4994556;57;1141066;-76
2023/03/24 03:22:18;;;;;;;9.70;5.03;;;;;;;10.51;100.00;99698.12;4999043;57;1138701;-78
2023/03/24 03:27:27;;;;;;;13.43;6.63;;;;;;;10.56;100.00;99703.80;5018973;57;1138826;-74
2023/03/24 03:32:38;;;;;;;12.40;6.10;;;;;;;10.57;100.00;99689.61;4995173;57;1140764;-79
2023/03/24 03:37:54;;;;;;;7.53;4.80;;;;;;;10.56;100.00;99687.94;4995086;57;1140769;-79
2023/03/24 03:43:00;;;;;;;11.43;5.43;;;;;;;10.59;100.00;99686.34;4995622;57;1139220;-75
2023/03/24 03:48:06;;;;;;;12.87;5.47;;;;;;;10.63;100.00;99677.17;4999369;57;1140976;-77
2023/03/24 03:53:16;;;;;;;10.30;5.30;;;;;;;10.64;100.00;99672.23;4914499;58;1141213;-75
2023/03/24 03:58:21;;;;;;;9.47;5.37;;;;;;;10.64;100.00;99655.53;4914635;58;1140861;-77
2023/03/24 04:03:54;;;;;;;14.40;7.27;;;;;;;10.62;100.00;99651.70;4860141;58;1138629;-77
2023/03/24 04:09:31;;;;;;;8.83;4.77;;;;;;;10.57;100.00;99649.47;4913055;58;1170199;-74
2023/03/24 04:14:42;;;;;;;9.27;5.30;;;;;;;10.57;100.00;99657.88;4914498;58;1156716;-78
2023/03/24 04:20:45;;;;;;;5.13;4.10;;;;;;;10.54;100.00;99643.64;4907337;58;1232408;-79
2023/03/24 04:25:57;;;;;;;11.17;5.00;;;;;;;10.47;100.00;99636.75;4873005;57;1201788;-77
2023/03/24 04:31:16;;;;;;;8.20;4.78;;;;;;;10.42;100.00;99623.59;4897502;57;1141040;-77
2023/03/24 04:36:33;;;;;;;5.70;4.23;;;;;;;10.42;100.00;99618.30;4872319;58;1138780;-77
2023/03/24 04:41:48;;;;;;;12.70;4.40;;;;;;;10.48;100.00;99611.15;4896969;58;1138729;-78
2023/03/24 04:46:59;;;;;;;13.28;5.37;;;;;;;10.51;100.00;99601.62;4872275;58;1200438;-76
2023/03/24 04:52:06;;;;;;;6.03;4.40;;;;;;;10.52;100.00;99592.23;4950843;58;1140946;-78
2023/03/24 04:57:13;;;;;;;6.20;4.27;;;;;;;10.54;100.00;99588.93;4971144;58;1138837;-75
2023/03/24 05:02:20;;;;;;;23.47;4.73;;;;;;;10.54;100.00;99577.55;4950252;58;1139170;-76
2023/03/24 05:07:26;;;;;;;5.67;3.97;;;;;;;10.58;100.00;99573.13;4950673;58;1179314;-78
2023/03/24 05:12:33;;;;;;;8.47;3.73;;;;;;;10.64;100.00;99570.42;4961463;58;1139060;-77
2023/03/24 05:17:51;;;;;;;5.80;3.87;;;;;;;10.66;100.00;99567.16;4851106;58;1139026;-78
2023/03/24 05:22:57;;;;;;;5.97;3.75;;;;;;;10.66;100.00;99562.34;4936018;58;1138806;-76
2023/03/24 05:28:03;;;;;;;9.35;3.10;;;;;;;10.67;100.00;99558.25;4969669;57;1138883;-78
2023/03/24 05:33:10;;;;;;;4.47;3.23;;;;;;;10.68;100.00;99549.34;4947014;58;1138929;-65
2023/03/24 05:38:17;;;;;;;4.50;3.63;;;;;;;10.74;100.00;99543.45;5008387;57;1138967;-72
2023/03/24 05:43:24;;;;;;;3.60;2.97;;;;;;;10.77;100.00;99552.91;5084688;56;1243874;-70
2023/03/24 05:48:32;;;;;;;6.83;3.53;;;;;;;10.75;100.00;99549.58;5048558;56;1245290;-67
2023/03/24 05:53:39;;;;;;;7.93;4.47;;;;;;;10.75;100.00;99549.58;5058984;57;1138659;-68
2023/03/24 05:58:52;;;;;;;4.62;3.50;;;;;;;10.75;100.00;99537.19;4913462;57;1257036;-72
2023/03/24 06:03:58;;;;;;;6.90;3.75;;;;;;;10.80;100.00;99533.63;4930547;58;1139619;-69
2023/03/24 06:09:04;;;;;;;5.87;3.52;;;;;;;10.86;100.00;99526.91;5058974;56;1139406;-67
2023/03/24 06:14:10;;;;;;;6.80;3.17;;;;;;;10.92;100.00;99516.59;5041083;57;1138908;-75
2023/03/24 06:19:21;;;;;;;4.97;3.67;;;;;;;11.01;100.00;99511.39;4924994;58;1139694;-70
2023/03/24 06:24:29;;;;;;;8.13;3.90;;;;;;;11.06;100.00;99514.44;4834723;57;1139542;-67
2023/03/24 06:29:37;;;;;;;5.73;3.57;;;;;;;11.11;100.00;99514.36;4940018;57;1244901;-69
2023/03/24 06:34:43;;;;;;;8.20;4.20;;;;;;;11.14;100.00;99505.30;4932997;58;1255480;-67
2023/03/24 06:39:54;;;;;;;5.33;3.80;;;;;;;11.15;100.00;99496.38;4935597;57;1138847;-70
2023/03/24 06:45:01;;;;;;;5.83;5.22;;;;;;;11.14;100.00;99503.98;4940521;58;1257825;-72
2023/03/24 06:50:09;;;;;;;7.57;5.00;;;;;;;11.11;100.00;99496.33;5006346;57;1138859;-77
2023/03/24 06:55:15;;;;;;;5.57;3.60;;;;;;;11.11;100.00;99495.84;5064902;56;1138725;-75
2023/03/24 07:00:21;;;;;;;5.90;3.83;;;;;;;11.11;100.00;99487.06;5058632;57;1138900;-76
2023/03/24 07:05:31;;;;;;;9.87;4.80;;;;;;;11.14;100.00;99486.77;5086719;56;1138755;-76
2023/03/24 07:10:39;;;;;;;6.60;4.40;;;;;;;11.15;100.00;99485.80;4922668;58;1139147;-78
2023/03/24 07:15:45;;;;;;;7.37;4.00;;;;;;;11.18;100.00;99471.75;5011538;56;1138828;-78
2023/03/24 07:20:53;;;;;;;9.78;4.55;;;;;;;11.21;100.00;99474.11;5076430;56;1144947;-77
2023/03/24 07:26:00;;;;;;;5.67;4.42;;;;;;;11.21;100.00;99462.69;5099687;56;1138749;-77
2023/03/24 07:31:23;;;;;;;5.35;3.92;;;;;;;11.24;100.00;99447.84;5089865;56;1138830;-77
2023/03/24 07:36:31;;;;;;;5.20;4.43;;;;;;;11.30;100.00;99447.74;5096075;56;1158727;-78
2023/03/24 07:41:37;;;;;;;5.57;4.10;;;;;;;11.40;100.00;99437.91;5109544;56;1138876;-77
2023/03/24 07:46:45;;;;;;;7.30;5.53;;;;;;;11.52;100.00;99431.40;5096671;56;1139137;-82
2023/03/24 07:51:50;;;;;;;7.73;5.13;;;;;;;11.74;100.00;99437.57;5024758;56;1138820;-77
2023/03/24 07:56:58;;;;;;;5.67;3.72;;;;;;;11.88;100.00;99435.73;4921004;57;1138825;-81
2023/03/24 08:02:03;;;;;;;7.97;3.72;;;;;;;12.02;100.00;99429.05;4977187;57;1138867;-78
2023/03/24 08:07:12;;;;;;;3.40;3.10;;;;;;;12.19;100.00;99429.49;4944448;57;1138716;-81
2023/03/24 08:12:18;;;;;;;5.57;3.73;;;;;;;12.37;100.00;99421.48;5034752;57;1138987;-78
2023/03/24 08:17:24;;;;;;;15.87;3.90;;;;;;;12.51;100.00;99427.53;5003579;57;1138970;-79
2023/03/24 08:22:29;;;;;;;5.17;3.23;;;;;;;12.63;100.00;99409.51;4948978;58;1141074;-78
2023/03/24 08:27:36;;;;;;;3.30;3.00;;;;;;;12.71;100.00;99409.53;4929713;58;1138903;-76
2023/03/24 08:32:48;;;;;;;4.80;3.17;;;;;;;12.79;100.00;99401.62;4938747;58;1138691;-80
2023/03/24 08:37:54;;;;;;;9.00;3.30;;;;;;;12.91;100.00;99402.15;4997736;57;1142588;-77
2023/03/24 08:43:03;;;;;;;3.50;2.52;;;;;;;13.26;100.00;99387.84;4928532;58;1138987;-77
2023/03/24 08:48:10;;;;;;;3.92;2.22;;;;;;;13.43;100.00;99371.43;4990276;57;1138749;-78
2023/03/24 08:53:16;;;;;;;3.43;2.70;;;;;;;13.52;100.00;99382.38;4867206;58;1138828;-79
2023/03/24 08:58:22;;;;;;;5.97;3.20;;;;;;;13.65;100.00;99379.55;4889963;58;1138745;-79
2023/03/24 09:03:30;;;;;;;10.53;4.20;;;;;;;13.77;100.00;99376.05;4918704;58;1138689;-77
2023/03/24 09:08:36;;;;;;;4.27;3.30;;;;;;;13.84;100.00;99362.44;4923550;57;1140892;-76
2023/03/24 09:13:42;;;;;;;4.10;3.20;;;;;;;13.95;100.00;99358.59;4923979;58;1138893;-77
2023/03/24 09:18:49;;;;;;;5.40;3.05;;;;;;;14.11;100.00;99355.91;4936526;57;1138991;-77
2023/03/24 09:23:54;;;;;;;4.33;3.10;;;;;;;14.33;100.00;99368.99;5000071;57;1139013;-75
2023/03/24 09:29:00;;;;;;;4.20;3.45;;;;;;;14.55;100.00;99355.45;4909401;58;1139056;-76
2023/03/24 09:34:06;;;;;;;6.67;3.75;;;;;;;14.66;100.00;99357.77;4901463;57;1138932;-80
2023/03/24 09:39:12;;;;;;;5.47;3.33;;;;;;;14.67;100.00;99352.23;4843571;58;1138799;-75
2023/03/24 09:44:43;;;;;;;6.60;2.23;;;;;;;14.83;100.00;99338.02;4920715;57;1138735;-75
2023/03/24 09:49:49;;;;;;;6.80;2.40;;;;;;;15.03;100.00;99338.41;4931449;57;1138806;-80
2023/03/24 09:55:01;;;;;;;3.63;1.77;;;;;;;15.06;100.00;99343.39;4929421;57;1148375;-77
2023/03/24 10:00:28;;;;;;;2.52;2.05;;;;;;;15.07;100.00;99319.25;4964674;57;1138848;-76
2023/03/24 10:05:54;;;;;;;3.40;1.60;;;;;;;15.24;100.00;99325.29;4928982;57;1138739;-73
2023/03/24 10:11:42;;;;;;;2.60;1.97;;;;;;;15.32;100.00;99311.06;4979740;57;1138837;-75
2023/03/24 10:17:01;;;;;;;2.13;1.93;;;;;;;15.37;100.00;99291.38;4913809;57;1138985;-77
2023/03/24 10:22:32;;;;;;;4.43;2.60;;;;;;;15.46;100.00;99301.78;4953935;57;1138892;-76
2023/03/24 10:27:42;;;;;;;3.20;2.27;;;;;;;15.57;100.00;99287.75;5005088;57;1139176;-73
2023/03/24 10:32:48;;;;;;;8.23;2.60;;;;;;;15.65;100.00;99277.00;5087793;56;1211285;-77
2023/03/24 10:37:56;;;;;;;6.58;2.60;;;;;;;15.68;100.00;99289.47;5027458;56;1148337;-77
2023/03/24 10:43:05;;;;;;;5.55;4.40;;;;;;;15.69;100.00;99298.29;5025460;56;1138999;-77
2023/03/24 10:48:14;;;;;;;5.33;3.98;;;;;;;15.68;100.00;99296.12;5054319;56;1138774;-77
2023/03/24 10:53:21;;;;;;;5.37;4.20;;;;;;;15.58;100.00;99300.90;5102619;56;1138803;-80
2023/03/24 10:58:39;;;;;;;6.30;4.13;;;;;;;15.59;100.00;99307.86;5061327;56;1138929;-76
2023/03/24 11:03:45;;;;;;;10.90;5.83;;;;;;;15.59;100.00;99301.70;5126255;56;1138719;-79
2023/03/24 11:09:11;;;;;;;6.03;3.07;;;;;;;15.56;100.00;99278.09;5017884;56;1140874;-77
2023/03/24 11:14:27;;;;;;;5.37;3.10;;;;;;;15.49;100.00;99288.10;4864669;57;1138830;-77
2023/03/24 11:19:35;;;;;;;5.57;3.40;;;;;;;15.44;100.00;99293.64;4953383;58;1138731;-75
2023/03/24 11:24:41;;;;;;;11.30;3.67;;;;;;;15.41;100.00;99290.02;4950361;57;1138954;-74
2023/03/24 11:29:53;;;;;;;9.77;4.80;;;;;;;15.48;100.00;99297.61;4938275;58;1140778;-77
2023/03/24 11:35:10;;;;;;;12.13;4.40;;;;;;;15.53;100.00;99285.08;5105269;56;1138940;-77
2023/03/24 11:40:22;;;;;;;7.13;3.27;;;;;;;15.48;100.00;99285.11;5088387;56;1140713;-75
2023/03/24 11:45:38;;;;;;;4.62;3.45;;;;;;;15.43;100.00;99283.48;5106175;56;1138707;-78
2023/03/24 11:50:45;;;;;;;5.00;4.03;;;;;;;15.39;100.00;99297.37;5053079;56;1138904;-72
2023/03/24 11:56:10;;;;;;;4.87;4.47;;;;;;;15.36;100.00;99295.88;5022776;57;1138684;-77
2023/03/24 12:01:26;;;;;;;10.80;4.43;;;;;;;15.32;100.00;99281.76;5045425;56;1138935;-74
2023/03/24 12:07:10;;;;;;;4.80;2.80;;;;;;;15.32;100.00;99301.23;5022608;56;1141027;-82
2023/03/24 12:12:28;;;;;;;9.00;4.13;;;;;;;15.39;100.00;99277.38;5094757;56;1138714;-80
2023/03/24 12:17:47;;;;;;;6.63;4.10;;;;;;;15.45;100.00;99271.31;5045257;56;1139033;-79
2023/03/24 12:23:09;;;;;;;7.40;3.90;;;;;;;15.74;100.00;99261.23;5037123;56;1145325;-79
2023/03/24 12:28:25;;;;;;;6.43;3.97;;;;;;;16.00;100.00;99243.47;5041932;56;1138922;-80
2023/03/24 12:34:01;;;;;;;5.73;3.40;;;;;;;16.04;100.00;99251.42;5073471;56;1138978;-80
2023/03/24 12:39:30;;;;;;;6.47;3.80;;;;;;;15.95;100.00;99252.02;5061789;56;1138659;-75
2023/03/24 12:45:10;;;;;;;13.53;5.00;;;;;;;15.96;100.00;99243.00;5067705;56;1138722;-76
2023/03/24 12:50:42;;;;;;;14.73;4.87;;;;;;;15.92;100.00;99252.38;5028596;56;1140872;-76
2023/03/24 12:56:00;;;;;;;6.26;4.80;;;;;;;15.92;100.00;99251.55;4998092;57;1141199;-77
2023/03/24 13:01:28;;;;;;;8.93;4.60;;;;;;;15.94;100.00;99246.36;5041198;56;1138818;-79
2023/03/24 13:06:57;;;;;;;9.93;3.80;;;;;;;15.99;100.00;99253.81;4985675;57;1138661;-78
2023/03/24 13:12:18;;;;;;;6.03;3.87;;;;;;;16.05;100.00;99243.72;4997116;56;1139274;-78
2023/03/24 13:17:31;;;;;;;4.63;3.00;;;;;;;16.08;100.00;99243.36;4998144;57;1138758;-78
2023/03/24 13:22:38;;;;;;;9.10;4.07;;;;;;;16.13;100.00;99236.97;5057995;56;1138867;-79
2023/03/24 13:27:47;;;;;;;7.83;4.63;;;;;;;16.16;100.00;99233.94;5056499;56;1138917;-76
2023/03/24 13:33:00;;;;;;;7.20;3.97;;;;;;;16.14;100.00;99238.63;5023923;56;1138838;-75
2023/03/24 13:38:22;;;;;;;8.47;4.27;;;;;;;16.13;100.00;99220.97;5032915;56;1139022;-76
2023/03/24 13:43:33;;;;;;;6.83;3.10;;;;;;;16.19;100.00;99225.03;4954114;57;1138785;-76
2023/03/24 13:48:44;;;;;;;10.90;3.20;;;;;;;16.25;100.00;99218.64;5016961;56;1138794;-77
2023/03/24 13:53:58;;;;;;;8.33;3.40;;;;;;;16.33;100.00;99214.55;5074179;56;1140940;-76
2023/03/24 13:59:09;;;;;;;4.47;2.77;;;;;;;16.43;100.00;99205.21;4951465;58;1138984;-75
2023/03/24 14:04:29;;;;;;;3.47;2.05;;;;;;;16.50;100.00;99199.42;5052582;57;1138887;-79
2023/03/24 14:09:34;;;;;;;1.67;1.57;;;;;;;16.51;100.00;99202.41;5029087;57;1138709;-78
2023/03/24 14:15:04;;;;;;;2.23;2.00;;;;;;;16.47;100.00;99206.50;4883500;57;1138783;-79
2023/03/24 14:20:13;;;;;;;2.57;1.87;;;;;;;16.44;100.00;99204.70;4841358;56;1138748;-79
2023/03/24 14:25:24;;;;;;;2.27;1.80;;;;;;;16.42;100.00;99200.89;5051738;56;1139030;-76
2023/03/24 14:30:31;;;;;;;1.50;1.40;;;;;;;16.38;100.00;99197.44;5095905;56;1138826;-78
2023/03/24 14:35:47;;;;;;;3.50;1.90;;;;;;;16.33;100.00;99202.53;4881234;58;1138799;-79
2023/03/24 14:41:00;;;;;;;2.30;2.10;;;;;;;16.28;100.00;99198.26;4928046;58;1138729;-81
2023/03/24 14:46:24;;;;;;;1.40;1.30;;;;;;;16.22;100.00;99200.33;4933252;58;1139013;-77
2023/03/24 14:51:49;;;;;;;5.93;4.00;;;;;;;16.08;100.00;99204.17;4927843;58;1138755;-80
2023/03/24 14:56:57;;;;;;;2.77;1.40;;;;;;;15.89;100.00;99241.27;4947769;57;1138817;-79
2023/03/24 15:02:23;;;;;;;1.85;1.00;;;;;;;15.09;100.00;99259.98;4896238;58;1138745;-79
2023/03/24 15:07:29;;;;;;;1.43;1.27;;;;;;;14.40;100.00;99245.78;4999342;57;1138753;-79
2023/03/24 15:12:35;;;;;;;5.97;1.43;;;;;;;14.01;100.00;99243.12;4938172;57;1138840;-76
2023/03/24 15:17:43;;;;;;;1.77;1.53;;;;;;;13.75;100.00;99245.71;4903726;58;1138800;-76
2023/03/24 15:22:53;;;;;;;3.50;1.30;;;;;;;13.49;100.00;99256.03;4996134;57;1138754;-76
2023/03/24 15:27:58;;;;;;;1.90;1.30;;;;;;;13.27;100.00;99248.77;4919718;58;1138736;-75
2023/03/24 15:33:05;;;;;;;7.95;3.80;;;;;;;13.13;100.00;99246.27;4891561;58;1138988;-78
2023/03/24 15:38:21;;;;;;;10.25;4.83;;;;;;;13.08;100.00;99213.23;4828752;58;1138823;-79
2023/03/24 15:43:27;;;;;;;6.40;3.20;;;;;;;13.15;100.00;99218.23;4980117;57;1140882;-77
2023/03/24 15:48:36;;;;;;;56.97;35.00;;;;;;;13.14;100.00;99227.98;4981221;57;1139029;-77
2023/03/24 15:53:47;;;;;;;3.50;2.57;;;;;;;13.13;100.00;99232.98;4956841;57;1143185;-76
2023/03/24 15:59:09;;;;;;;1.70;1.60;;;;;;;13.12;100.00;99238.46;4960257;57;1139006;-79
2023/03/24 16:04:19;;;;;;;7.47;6.72;;;;;;;13.08;100.00;99229.16;4990155;57;1138819;-79
2023/03/24 16:09:26;;;;;;;18.50;13.43;;;;;;;13.07;100.00;99236.80;4917715;57;1138804;-80
2023/03/24 16:14:34;;;;;;;6.10;5.50;;;;;;;13.03;100.00;99229.16;4904398;57;1143009;-78
2023/03/24 16:19:40;;;;;;;92.67;36.43;;;;;;;13.03;100.00;99231.81;4919817;57;1138743;-77
2023/03/24 16:24:45;;;;;;;22.37;12.70;;;;;;;13.00;100.00;99229.98;4957603;57;1142881;-81
2023/03/24 16:29:51;;;;;;;19.05;12.88;;;;;;;12.97;100.00;99220.55;4980290;56;1143028;-84
2023/03/24 16:34:57;;;;;;;30.30;17.37;;;;;;;12.98;100.00;99236.81;4974879;56;1142992;-79
2023/03/24 16:40:05;;;;;;;23.30;11.00;;;;;;;12.96;100.00;99257.37;5021511;57;1143062;-76
2023/03/24 16:45:10;;;;;;;88.62;36.53;;;;;;;12.96;100.00;99256.05;5066649;56;1143001;-79
2023/03/24 16:50:30;;;;;;;20.68;8.60;;;;;;;12.93;100.00;99270.13;5066287;57;1142890;-77
2023/03/24 16:55:41;;;;;;;9.68;5.45;;;;;;;12.87;100.00;99274.27;5081133;56;1140896;-80
2023/03/24 17:00:47;;;;;;;4.50;3.70;;;;;;;12.83;100.00;99284.86;5018065;56;1138711;-81
2023/03/24 17:05:53;;;;;;;4.90;3.20;;;;;;;12.81;100.00;99302.80;5009517;57;1138826;-81
2023/03/24 17:11:00;;;;;;;2.67;2.40;;;;;;;12.76;100.00;99309.08;4925751;57;1138806;-85
2023/03/24 17:16:10;;;;;;;4.37;2.37;;;;;;;12.69;100.00;99298.77;4973425;57;1139004;-78
2023/03/24 17:21:18;;;;;;;5.33;2.93;;;;;;;12.64;100.00;99324.47;4993072;57;1138704;-77
2023/03/24 17:26:25;;;;;;;6.87;3.27;;;;;;;12.57;100.00;99353.11;4971994;57;1138715;-81
2023/03/24 17:31:30;;;;;;;6.73;3.77;;;;;;;12.42;100.00;99365.31;4932363;58;1138950;-83
2023/03/24 17:36:36;;;;;;;5.33;3.37;;;;;;;12.18;100.00;99382.77;5030184;56;1138974;-78
2023/03/24 17:41:42;;;;;;;8.37;4.60;;;;;;;11.86;100.00;99379.91;5081090;56;1139072;-79
2023/03/24 17:46:48;;;;;;;9.57;6.10;;;;;;;11.53;100.00;99382.75;5042880;56;1138893;-81
2023/03/24 17:51:54;;;;;;;7.37;4.53;;;;;;;11.36;100.00;99357.12;5066962;56;1138686;-82
2023/03/24 17:56:59;;;;;;;7.97;5.70;;;;;;;11.33;100.00;99309.28;5044153;56;1138806;-78
2023/03/24 18:14:30;;;;;;;3.83;1.77;;;;;;;11.58;100.00;99292.61;5075295;56;46185;-79
2023/03/24 18:19:36;;;;;;;57.10;17.13;;;;;;;11.38;100.00;99339.27;4935005;57;1134784;-76
2023/03/24 18:24:42;;;;;;;62.80;25.57;;;;;;;11.42;100.00;99340.64;4888546;57;1143223;-76
2023/03/24 18:29:47;;;;;;;54.97;27.13;;;;;;;11.46;100.00;99349.92;4884265;58;1143007;-78
2023/03/24 18:34:53;;;;;;;65.13;30.17;;;;;;;11.43;100.00;99364.31;4992711;57;1143004;-74
2023/03/24 18:40:00;;;;;;;308.07;153.75;;;;;;;11.41;100.00;99373.39;4939368;58;1143117;-79
2023/03/24 18:45:07;;;;;;;47.43;29.40;;;;;;;11.51;100.00;99379.42;4986390;56;1147311;-77
2023/03/24 18:50:14;;;;;;;40.77;20.80;;;;;;;11.63;100.00;99384.33;4995808;56;1142917;-73
2023/03/24 18:55:20;;;;;;;54.80;20.97;;;;;;;11.72;100.00;99393.67;5001074;56;1143392;-77
2023/03/24 19:00:26;;;;;;;34.13;14.80;;;;;;;11.58;100.00;99397.22;5057433;56;1142964;-77
2023/03/24 19:05:33;;;;;;;74.17;32.67;;;;;;;11.43;100.00;99389.96;5043122;56;1143202;-80
2023/03/24 19:10:38;;;;;;;67.27;29.97;;;;;;;11.34;100.00;99404.09;4987753;57;1143054;-80
2023/03/24 19:15:53;;;;;;;20.33;11.90;;;;;;;11.23;100.00;99417.89;4995744;56;1143277;-80
2023/03/24 19:21:00;;;;;;;23.70;9.53;;;;;;;11.09;100.00;99422.37;4992897;56;1143191;-82
2023/03/24 19:26:06;;;;;;;16.73;6.13;;;;;;;10.94;100.00;99419.89;5099053;56;1140828;-76
2023/03/24 19:31:16;;;;;;;20.60;9.33;;;;;;;10.79;100.00;99423.52;5135489;55;1140965;-70
2023/03/24 19:36:24;;;;;;;38.73;15.28;;;;;;;10.72;100.00;99414.98;5021237;56;1140994;-72
2023/03/24 19:41:29;;;;;;;17.87;10.35;;;;;;;10.68;100.00;99408.34;4992245;56;1142974;-74
2023/03/24 19:46:35;;;;;;;21.70;11.60;;;;;;;10.66;100.00;99410.30;4899159;58;1143204;-69
2023/03/24 19:51:40;;;;;;;15.87;7.67;;;;;;;10.55;100.00;99412.14;4918754;58;1143025;-73
2023/03/24 19:56:46;;;;;;;15.43;7.23;;;;;;;10.48;100.00;99407.11;4967374;57;1140926;-70
2023/03/24 20:01:52;;;;;;;17.80;7.83;;;;;;;10.42;100.00;99398.42;4956309;57;1140815;-72
2023/03/24 20:06:57;;;;;;;14.40;8.50;;;;;;;10.36;100.00;99402.16;4946236;57;1141332;-70
2023/03/24 20:12:03;;;;;;;17.40;9.37;;;;;;;10.32;100.00;99406.05;4939980;57;1140888;-72
2023/03/24 20:17:17;;;;;;;23.70;11.30;;;;;;;10.26;100.00;99411.91;4886876;57;1141005;-71
2023/03/24 20:22:23;;;;;;;14.70;8.50;;;;;;;10.24;100.00;99402.80;4976495;56;1142966;-69
2023/03/24 20:27:29;;;;;;;18.65;8.53;;;;;;;10.19;100.00;99405.89;4955846;57;1140987;-75
2023/03/24 20:32:35;;;;;;;12.17;5.60;;;;;;;10.19;100.00;99418.27;4943064;58;1140915;-75
2023/03/24 20:37:41;;;;;;;12.93;6.53;;;;;;;10.17;100.00;99435.55;4947130;58;1141046;-69
2023/03/24 20:42:46;;;;;;;11.97;6.53;;;;;;;10.12;100.00;99440.42;4963873;57;1141034;-80
2023/03/24 20:47:52;;;;;;;8.57;5.47;;;;;;;10.05;100.00;99427.45;4993331;56;1140939;-79
2023/03/24 20:52:58;;;;;;;12.07;6.50;;;;;;;10.05;100.00;99423.97;5005010;57;1139075;-83
2023/03/24 20:58:07;;;;;;;13.97;5.87;;;;;;;9.99;100.00;99435.09;4986892;57;1141103;-82
2023/03/24 21:03:11;;;;;;;11.63;5.27;;;;;;;9.94;100.00;99445.23;4984607;57;1139248;-81
2023/03/24 21:08:18;;;;;;;8.23;4.70;;;;;;;9.88;100.00;99439.56;4949639;58;1138836;-84
2023/03/24 21:13:24;;;;;;;9.30;5.03;;;;;;;9.83;100.00;99452.35;5058301;56;1137068;-81
2023/03/24 21:18:31;;;;;;;9.58;5.70;;;;;;;9.77;100.00;99447.65;5079232;56;1136874;-84
2023/03/24 21:23:37;;;;;;;6.37;4.17;;;;;;;9.71;100.00;99454.80;5098131;55;1136765;-85
2023/03/24 21:28:44;;;;;;;8.30;4.60;;;;;;;9.68;100.00;99459.03;5034009;56;1136882;-84
2023/03/24 21:33:50;;;;;;;14.50;6.07;;;;;;;9.64;100.00;99466.87;5014296;56;1136880;-85
2023/03/24 21:38:57;;;;;;;11.67;5.27;;;;;;;9.61;100.00;99461.89;5014070;56;1138815;-77
2023/03/24 21:44:03;;;;;;;12.30;5.97;;;;;;;9.60;100.00;99460.71;5023005;56;1138892;-87
2023/03/24 21:49:09;;;;;;;11.13;6.13;;;;;;;9.54;100.00;99470.00;5033535;57;1138932;-78
2023/03/24 21:54:15;;;;;;;10.27;5.40;;;;;;;9.49;100.00;99462.48;5014048;56;1139062;-82
2023/03/24 21:59:22;;;;;;;14.87;6.50;;;;;;;9.44;100.00;99460.77;5014061;56;1138900;-83
2023/03/24 22:04:27;;;;;;;9.53;5.35;;;;;;;9.44;100.00;99461.25;5117590;56;1138789;-87
2023/03/24 22:09:34;;;;;;;12.95;5.75;;;;;;;9.43;100.00;99463.05;4903735;57;1136716;-84
2023/03/24 22:14:40;;;;;;;47.23;26.17;;;;;;;9.43;100.00;99476.25;4961641;57;1138894;-87
2023/03/24 22:19:45;;;;;;;9.73;5.83;;;;;;;9.44;100.00;99470.48;4929712;56;1141090;-83
2023/03/24 22:24:51;;;;;;;23.17;9.93;;;;;;;9.47;100.00;99484.73;4902365;56;1136776;-82
2023/03/24 22:29:57;;;;;;;13.73;6.27;;;;;;;9.45;100.00;99482.72;4909245;58;1139054;-81
2023/03/24 22:35:04;;;;;;;9.58;6.17;;;;;;;9.40;100.00;99503.39;4996318;56;1138978;-80
2023/03/24 22:40:10;;;;;;;7.53;4.83;;;;;;;9.37;100.00;99493.10;4922301;57;1136629;-80
2023/03/24 22:45:16;;;;;;;6.77;4.87;;;;;;;9.29;100.00;99495.60;4984983;57;1136690;-80
2023/03/24 22:50:21;;;;;;;14.47;7.47;;;;;;;9.24;100.00;99501.77;4986060;56;1136804;-80
2023/03/24 22:55:27;;;;;;;15.67;8.43;;;;;;;9.21;100.00;99502.86;5024398;56;1139081;-76
2023/03/24 23:00:33;;;;;;;11.40;7.33;;;;;;;9.23;100.00;99515.92;5068542;56;1138920;-75
2023/03/24 23:05:46;;;;;;;8.50;5.87;;;;;;;9.25;100.00;99503.44;5066440;56;1138928;-84
2023/03/24 23:10:52;;;;;;;8.00;5.60;;;;;;;9.22;100.00;99496.62;4946147;57;1136985;-82
2023/03/24 23:15:57;;;;;;;8.97;6.40;;;;;;;9.16;100.00;99487.45;4986253;57;1136818;-80
2023/03/24 23:21:06;;;;;;;17.70;6.70;;;;;;;9.11;100.00;99484.38;4980992;57;1137135;-82
2023/03/24 23:26:13;;;;;;;9.10;5.63;;;;;;;9.10;100.00;99494.58;4981334;57;1139059;-79
2023/03/24 23:31:25;;;;;;;12.45;6.53;;;;;;;9.10;100.00;99484.03;5017041;57;1136748;-81
2023/03/24 23:36:32;;;;;;;12.13;7.62;;;;;;;9.09;100.00;99490.76;4985621;57;1138870;-77
2023/03/24 23:41:37;;;;;;;8.93;5.23;;;;;;;9.05;100.00;99491.50;4983602;57;1138949;-84